sensor_id;sensor_type;location;lat;lon;timestamp;temperature;humidity
27890;DHT22;15238;49.082;9.102;2022-10-22T00:01:34;14.10;99.90
27890;DHT22;15238;49.082;9.102;2022-10-22T00:03:35;14.00;99.90
27890;DHT22;15238;49.082;9.102;2022-10-22T00:05:36;14.00;99.90
27890;DHT22;15238;49.082;9.102;2022-10-22T00:07:37;14.00;99.90
27890;DHT22;15238;49.082;9.102;2022-10-22T00:09:37;14.00;99.90
27890;DHT22;15238;49.082;9.102;2022-10-22T00:11:38;14.00;99.90
27890;DHT22;15238;49.082;9.102;2022-10-22T00:13:39;14.10;99.90
27890;DHT22;15238;49.082;9.102;2022-10-22T00:15:40;14.10;99.90
27890;DHT22;15238;49.082;9.102;2022-10-22T00:17:40;14.10;99.90
27890;DHT22;15238;49.082;9.102;2022-10-22T00:19:41;14.10;99.90
27890;DHT22;15238;49.082;9.102;2022-10-22T00:21:42;14.10;99.90
27890;DHT22;15238;49.082;9.102;2022-10-22T00:23:42;14.10;99.90
27890;DHT22;15238;49.082;9.102;2022-10-22T00:25:43;14.10;99.90
27890;DHT22;15238;49.082;9.102;2022-10-22T00:27:43;14.10;99.90
27890;DHT22;15238;49.082;9.102;2022-10-22T00:29:44;14.00;99.90
27890;DHT22;15238;49.082;9.102;2022-10-22T00:31:45;14.00;99.90
27890;DHT22;15238;49.082;9.102;2022-10-22T00:33:49;13.90;99.90
27890;DHT22;15238;49.082;9.102;2022-10-22T00:35:49;14.00;99.90
27890;DHT22;15238;49.082;9.102;2022-10-22T00:37:50;14.10;99.90
27890;DHT22;15238;49.082;9.102;2022-10-22T00:39:50;14.20;99.90
27890;DHT22;15238;49.082;9.102;2022-10-22T00:41:52;14.20;99.90
27890;DHT22;15238;49.082;9.102;2022-10-22T00:43:56;14.20;99.90
27890;DHT22;15238;49.082;9.102;2022-10-22T00:45:57;14.20;99.90
27890;DHT22;15238;49.082;9.102;2022-10-22T00:48:02;14.20;99.90
27890;DHT22;15238;49.082;9.102;2022-10-22T00:50:07;14.20;99.90
27890;DHT22;15238;49.082;9.102;2022-10-22T00:52:08;14.20;99.90
27890;DHT22;15238;49.082;9.102;2022-10-22T00:54:10;14.10;99.90
27890;DHT22;15238;49.082;9.102;2022-10-22T00:56:11;14.20;99.90
27890;DHT22;15238;49.082;9.102;2022-10-22T00:58:12;14.10;99.90
27890;DHT22;15238;49.082;9.102;2022-10-22T01:00:13;14.10;99.90
27890;DHT22;15238;49.082;9.102;2022-10-22T01:02:15;14.10;99.90
27890;DHT22;15238;49.082;9.102;2022-10-22T01:04:16;14.00;99.90
27890;DHT22;15238;49.082;9.102;2022-10-22T01:06:28;14.00;99.90
27890;DHT22;15238;49.082;9.102;2022-10-22T01:22:19;13.80;99.90
27890;DHT22;15238;49.082;9.102;2022-10-22T01:29:29;13.90;99.90
27890;DHT22;15238;49.082;9.102;2022-10-22T01:31:38;13.80;99.90
27890;DHT22;15238;49.082;9.102;2022-10-22T01:33:41;13.90;99.90
27890;DHT22;15238;49.082;9.102;2022-10-22T01:35:44;13.80;99.90
27890;DHT22;15238;49.082;9.102;2022-10-22T01:37:48;13.80;99.90
27890;DHT22;15238;49.082;9.102;2022-10-22T01:39:51;13.80;99.90
27890;DHT22;15238;49.082;9.102;2022-10-22T01:41:54;13.80;99.90
27890;DHT22;15238;49.082;9.102;2022-10-22T01:43:55;13.70;99.90
27890;DHT22;15238;49.082;9.102;2022-10-22T01:45:59;13.70;99.90
27890;DHT22;15238;49.082;9.102;2022-10-22T01:52:55;13.70;99.90
27890;DHT22;15238;49.082;9.102;2022-10-22T01:55:12;13.70;99.90
27890;DHT22;15238;49.082;9.102;2022-10-22T02:00:08;13.70;99.90
27890;DHT22;15238;49.082;9.102;2022-10-22T02:04:27;13.70;99.90
27890;DHT22;15238;49.082;9.102;2022-10-22T02:06:29;13.80;99.90
27890;DHT22;15238;49.082;9.102;2022-10-22T02:08:32;13.80;99.90
27890;DHT22;15238;49.082;9.102;2022-10-22T02:10:39;13.80;99.90
27890;DHT22;15238;49.082;9.102;2022-10-22T02:12:42;13.80;99.90
27890;DHT22;15238;49.082;9.102;2022-10-22T02:14:45;13.80;99.90
27890;DHT22;15238;49.082;9.102;2022-10-22T02:16:48;13.80;99.90
27890;DHT22;15238;49.082;9.102;2022-10-22T02:18:53;13.80;99.90
27890;DHT22;15238;49.082;9.102;2022-10-22T02:20:55;13.70;99.90
27890;DHT22;15238;49.082;9.102;2022-10-22T02:22:58;13.70;99.90
27890;DHT22;15238;49.082;9.102;2022-10-22T02:24:59;13.70;99.90
27890;DHT22;15238;49.082;9.102;2022-10-22T02:27:08;13.70;99.90
27890;DHT22;15238;49.082;9.102;2022-10-22T02:29:17;13.70;99.90
27890;DHT22;15238;49.082;9.102;2022-10-22T02:31:22;13.60;99.90
27890;DHT22;15238;49.082;9.102;2022-10-22T02:33:36;13.60;99.90
27890;DHT22;15238;49.082;9.102;2022-10-22T02:35:39;13.60;99.90
27890;DHT22;15238;49.082;9.102;2022-10-22T02:37:41;13.60;99.90
27890;DHT22;15238;49.082;9.102;2022-10-22T02:39:43;13.50;99.90
27890;DHT22;15238;49.082;9.102;2022-10-22T02:41:44;13.50;99.90
27890;DHT22;15238;49.082;9.102;2022-10-22T02:43:49;13.50;99.90
27890;DHT22;15238;49.082;9.102;2022-10-22T02:45:51;13.50;99.90
27890;DHT22;15238;49.082;9.102;2022-10-22T02:47:51;13.50;99.90
27890;DHT22;15238;49.082;9.102;2022-10-22T02:49:52;13.50;99.90
27890;DHT22;15238;49.082;9.102;2022-10-22T02:51:52;13.50;99.90
27890;DHT22;15238;49.082;9.102;2022-10-22T02:53:53;13.40;99.90
27890;DHT22;15238;49.082;9.102;2022-10-22T02:55:53;13.40;99.90
27890;DHT22;15238;49.082;9.102;2022-10-22T02:57:54;13.40;99.90
27890;DHT22;15238;49.082;9.102;2022-10-22T02:59:54;13.40;99.90
27890;DHT22;15238;49.082;9.102;2022-10-22T03:01:55;13.40;99.90
27890;DHT22;15238;49.082;9.102;2022-10-22T03:03:56;13.40;99.90
27890;DHT22;15238;49.082;9.102;2022-10-22T03:05:56;13.40;99.90
27890;DHT22;15238;49.082;9.102;2022-10-22T03:07:57;13.40;99.90
27890;DHT22;15238;49.082;9.102;2022-10-22T03:09:57;13.40;99.90
27890;DHT22;15238;49.082;9.102;2022-10-22T03:11:58;13.40;99.90
27890;DHT22;15238;49.082;9.102;2022-10-22T03:13:58;13.40;99.90
27890;DHT22;15238;49.082;9.102;2022-10-22T03:15:59;13.40;99.90
27890;DHT22;15238;49.082;9.102;2022-10-22T03:17:59;13.40;99.90
27890;DHT22;15238;49.082;9.102;2022-10-22T03:20:00;13.40;99.90
27890;DHT22;15238;49.082;9.102;2022-10-22T03:22:12;13.40;99.90
27890;DHT22;15238;49.082;9.102;2022-10-22T03:24:18;13.40;99.90
27890;DHT22;15238;49.082;9.102;2022-10-22T03:26:21;13.50;99.90
27890;DHT22;15238;49.082;9.102;2022-10-22T03:28:22;13.50;99.90
27890;DHT22;15238;49.082;9.102;2022-10-22T03:30:22;13.50;99.90
27890;DHT22;15238;49.082;9.102;2022-10-22T03:32:23;13.50;99.90
27890;DHT22;15238;49.082;9.102;2022-10-22T03:34:23;13.50;99.90
27890;DHT22;15238;49.082;9.102;2022-10-22T03:36:24;13.50;99.90
27890;DHT22;15238;49.082;9.102;2022-10-22T03:38:25;13.50;99.90
27890;DHT22;15238;49.082;9.102;2022-10-22T03:40:26;13.50;99.90
27890;DHT22;15238;49.082;9.102;2022-10-22T03:42:26;13.50;99.90
27890;DHT22;15238;49.082;9.102;2022-10-22T03:44:27;13.50;99.90
27890;DHT22;15238;49.082;9.102;2022-10-22T03:46:29;13.50;99.90
27890;DHT22;15238;49.082;9.102;2022-10-22T03:48:29;13.50;99.90
27890;DHT22;15238;49.082;9.102;2022-10-22T03:50:30;13.50;99.90
27890;DHT22;15238;49.082;9.102;2022-10-22T03:52:35;13.50;99.90
27890;DHT22;15238;49.082;9.102;2022-10-22T03:54:37;13.50;99.90
27890;DHT22;15238;49.082;9.102;2022-10-22T03:56:37;13.50;99.90
27890;DHT22;15238;49.082;9.102;2022-10-22T03:58:39;13.40;99.90
27890;DHT22;15238;49.082;9.102;2022-10-22T04:00:40;13.40;99.90
27890;DHT22;15238;49.082;9.102;2022-10-22T04:02:40;13.50;99.90
27890;DHT22;15238;49.082;9.102;2022-10-22T04:04:41;13.40;99.90
27890;DHT22;15238;49.082;9.102;2022-10-22T04:06:41;13.50;99.90
27890;DHT22;15238;49.082;9.102;2022-10-22T04:08:43;13.40;99.90
27890;DHT22;15238;49.082;9.102;2022-10-22T04:10:50;13.50;99.90
27890;DHT22;15238;49.082;9.102;2022-10-22T04:12:51;13.40;99.90
27890;DHT22;15238;49.082;9.102;2022-10-22T04:14:51;13.40;99.90
27890;DHT22;15238;49.082;9.102;2022-10-22T04:16:53;13.40;99.90
27890;DHT22;15238;49.082;9.102;2022-10-22T04:18:54;13.40;99.90
27890;DHT22;15238;49.082;9.102;2022-10-22T04:20:54;13.40;99.90
27890;DHT22;15238;49.082;9.102;2022-10-22T04:22:55;13.30;99.90
27890;DHT22;15238;49.082;9.102;2022-10-22T04:24:55;13.30;99.90
27890;DHT22;15238;49.082;9.102;2022-10-22T04:26:56;13.20;99.90
27890;DHT22;15238;49.082;9.102;2022-10-22T04:28:57;13.20;99.90
27890;DHT22;15238;49.082;9.102;2022-10-22T04:30:57;13.20;99.90
27890;DHT22;15238;49.082;9.102;2022-10-22T04:32:58;13.10;99.90
27890;DHT22;15238;49.082;9.102;2022-10-22T04:34:58;13.10;99.90
27890;DHT22;15238;49.082;9.102;2022-10-22T04:36:59;13.10;99.90
27890;DHT22;15238;49.082;9.102;2022-10-22T04:39:00;13.10;99.90
27890;DHT22;15238;49.082;9.102;2022-10-22T04:41:15;13.00;99.90
27890;DHT22;15238;49.082;9.102;2022-10-22T04:43:16;13.00;99.90
27890;DHT22;15238;49.082;9.102;2022-10-22T04:45:16;12.90;99.90
27890;DHT22;15238;49.082;9.102;2022-10-22T04:47:17;12.90;99.90
27890;DHT22;15238;49.082;9.102;2022-10-22T04:49:17;12.80;99.90
27890;DHT22;15238;49.082;9.102;2022-10-22T04:51:20;12.80;99.90
27890;DHT22;15238;49.082;9.102;2022-10-22T04:53:21;12.70;99.90
27890;DHT22;15238;49.082;9.102;2022-10-22T04:55:21;12.60;99.90
27890;DHT22;15238;49.082;9.102;2022-10-22T04:57:22;12.60;99.90
27890;DHT22;15238;49.082;9.102;2022-10-22T04:59:22;12.50;99.90
27890;DHT22;15238;49.082;9.102;2022-10-22T05:01:35;12.50;99.90
27890;DHT22;15238;49.082;9.102;2022-10-22T05:03:36;12.50;99.90
27890;DHT22;15238;49.082;9.102;2022-10-22T05:05:36;12.40;99.90
27890;DHT22;15238;49.082;9.102;2022-10-22T05:07:37;12.40;99.90
27890;DHT22;15238;49.082;9.102;2022-10-22T05:09:37;12.20;99.90
27890;DHT22;15238;49.082;9.102;2022-10-22T05:11:40;12.20;99.90
27890;DHT22;15238;49.082;9.102;2022-10-22T05:13:41;12.20;99.90
27890;DHT22;15238;49.082;9.102;2022-10-22T05:15:41;12.10;99.90
27890;DHT22;15238;49.082;9.102;2022-10-22T05:17:42;12.10;99.90
27890;DHT22;15238;49.082;9.102;2022-10-22T05:19:42;12.10;99.90
27890;DHT22;15238;49.082;9.102;2022-10-22T05:21:43;12.10;99.90
27890;DHT22;15238;49.082;9.102;2022-10-22T05:23:46;12.10;99.90
27890;DHT22;15238;49.082;9.102;2022-10-22T05:25:47;12.00;99.90
27890;DHT22;15238;49.082;9.102;2022-10-22T05:27:48;12.00;99.90
27890;DHT22;15238;49.082;9.102;2022-10-22T05:29:49;12.00;99.90
27890;DHT22;15238;49.082;9.102;2022-10-22T05:31:50;12.00;99.90
27890;DHT22;15238;49.082;9.102;2022-10-22T05:33:51;12.00;99.90
27890;DHT22;15238;49.082;9.102;2022-10-22T05:35:51;12.00;99.90
27890;DHT22;15238;49.082;9.102;2022-10-22T05:37:52;12.00;99.90
27890;DHT22;15238;49.082;9.102;2022-10-22T05:39:53;11.90;99.90
27890;DHT22;15238;49.082;9.102;2022-10-22T05:41:53;12.00;99.90
27890;DHT22;15238;49.082;9.102;2022-10-22T05:43:56;12.00;99.90
27890;DHT22;15238;49.082;9.102;2022-10-22T05:46:02;11.90;99.90
27890;DHT22;15238;49.082;9.102;2022-10-22T05:48:03;11.90;99.90
27890;DHT22;15238;49.082;9.102;2022-10-22T05:50:05;11.90;99.90
27890;DHT22;15238;49.082;9.102;2022-10-22T05:52:05;11.90;99.90
27890;DHT22;15238;49.082;9.102;2022-10-22T05:54:07;11.80;99.90
27890;DHT22;15238;49.082;9.102;2022-10-22T05:56:12;11.80;99.90
27890;DHT22;15238;49.082;9.102;2022-10-22T05:58:13;11.90;99.90
27890;DHT22;15238;49.082;9.102;2022-10-22T06:00:14;11.90;99.90
27890;DHT22;15238;49.082;9.102;2022-10-22T06:02:15;11.90;99.90
27890;DHT22;15238;49.082;9.102;2022-10-22T06:04:15;11.90;99.90
27890;DHT22;15238;49.082;9.102;2022-10-22T06:08:23;11.90;99.90
27890;DHT22;15238;49.082;9.102;2022-10-22T06:10:24;11.90;99.90
27890;DHT22;15238;49.082;9.102;2022-10-22T06:12:25;12.00;99.90
27890;DHT22;15238;49.082;9.102;2022-10-22T06:14:26;12.00;99.90
27890;DHT22;15238;49.082;9.102;2022-10-22T06:16:28;12.00;99.90
27890;DHT22;15238;49.082;9.102;2022-10-22T06:18:29;12.10;99.90
27890;DHT22;15238;49.082;9.102;2022-10-22T06:20:29;12.10;99.90
27890;DHT22;15238;49.082;9.102;2022-10-22T06:22:30;12.20;99.90
27890;DHT22;15238;49.082;9.102;2022-10-22T06:24:31;12.20;99.90
27890;DHT22;15238;49.082;9.102;2022-10-22T06:26:31;12.30;99.90
27890;DHT22;15238;49.082;9.102;2022-10-22T06:28:32;12.30;99.90
27890;DHT22;15238;49.082;9.102;2022-10-22T06:30:33;12.30;99.90
27890;DHT22;15238;49.082;9.102;2022-10-22T06:32:33;12.40;99.90
27890;DHT22;15238;49.082;9.102;2022-10-22T06:34:34;12.40;99.90
27890;DHT22;15238;49.082;9.102;2022-10-22T06:36:35;12.40;99.90
27890;DHT22;15238;49.082;9.102;2022-10-22T06:38:35;12.40;99.90
27890;DHT22;15238;49.082;9.102;2022-10-22T06:40:36;12.40;99.90
27890;DHT22;15238;49.082;9.102;2022-10-22T06:42:37;12.50;99.90
27890;DHT22;15238;49.082;9.102;2022-10-22T06:44:37;12.50;99.90
27890;DHT22;15238;49.082;9.102;2022-10-22T06:46:38;12.50;99.90
27890;DHT22;15238;49.082;9.102;2022-10-22T06:48:38;12.40;99.90
27890;DHT22;15238;49.082;9.102;2022-10-22T06:50:39;12.50;99.90
27890;DHT22;15238;49.082;9.102;2022-10-22T06:52:40;12.50;99.90
27890;DHT22;15238;49.082;9.102;2022-10-22T06:54:41;12.50;99.90
27890;DHT22;15238;49.082;9.102;2022-10-22T06:56:41;12.50;99.90
27890;DHT22;15238;49.082;9.102;2022-10-22T06:58:42;12.50;99.90
27890;DHT22;15238;49.082;9.102;2022-10-22T07:00:43;12.60;99.90
27890;DHT22;15238;49.082;9.102;2022-10-22T07:02:43;12.60;99.90
27890;DHT22;15238;49.082;9.102;2022-10-22T07:04:44;12.70;99.90
27890;DHT22;15238;49.082;9.102;2022-10-22T07:06:44;12.70;99.90
27890;DHT22;15238;49.082;9.102;2022-10-22T07:08:45;12.70;99.90
27890;DHT22;15238;49.082;9.102;2022-10-22T07:10:45;12.70;99.90
27890;DHT22;15238;49.082;9.102;2022-10-22T07:12:46;12.80;99.90
27890;DHT22;15238;49.082;9.102;2022-10-22T07:14:47;12.80;99.90
27890;DHT22;15238;49.082;9.102;2022-10-22T07:16:48;12.90;99.90
27890;DHT22;15238;49.082;9.102;2022-10-22T07:18:49;12.90;99.90
27890;DHT22;15238;49.082;9.102;2022-10-22T07:20:50;12.90;99.90
27890;DHT22;15238;49.082;9.102;2022-10-22T07:22:51;13.00;99.90
27890;DHT22;15238;49.082;9.102;2022-10-22T07:24:51;12.90;99.90
27890;DHT22;15238;49.082;9.102;2022-10-22T07:26:52;13.00;99.90
27890;DHT22;15238;49.082;9.102;2022-10-22T07:28:53;13.00;99.90
27890;DHT22;15238;49.082;9.102;2022-10-22T07:30:53;13.00;99.90
27890;DHT22;15238;49.082;9.102;2022-10-22T07:32:54;13.00;99.90
27890;DHT22;15238;49.082;9.102;2022-10-22T07:34:54;13.00;99.90
27890;DHT22;15238;49.082;9.102;2022-10-22T07:36:55;13.00;99.90
27890;DHT22;15238;49.082;9.102;2022-10-22T07:38:57;13.10;99.90
27890;DHT22;15238;49.082;9.102;2022-10-22T07:40:59;13.10;99.90
27890;DHT22;15238;49.082;9.102;2022-10-22T07:43:00;13.10;99.90
27890;DHT22;15238;49.082;9.102;2022-10-22T07:45:01;13.10;99.90
27890;DHT22;15238;49.082;9.102;2022-10-22T07:47:01;13.10;99.90
27890;DHT22;15238;49.082;9.102;2022-10-22T07:49:02;13.20;99.90
27890;DHT22;15238;49.082;9.102;2022-10-22T07:51:02;13.30;99.90
27890;DHT22;15238;49.082;9.102;2022-10-22T07:53:03;13.40;99.90
27890;DHT22;15238;49.082;9.102;2022-10-22T07:55:04;13.40;99.90
27890;DHT22;15238;49.082;9.102;2022-10-22T07:57:04;13.50;99.90
27890;DHT22;15238;49.082;9.102;2022-10-22T07:59:05;13.50;99.90
27890;DHT22;15238;49.082;9.102;2022-10-22T08:01:06;13.50;99.90
27890;DHT22;15238;49.082;9.102;2022-10-22T08:03:09;13.50;99.90
27890;DHT22;15238;49.082;9.102;2022-10-22T08:05:10;13.50;99.90
27890;DHT22;15238;49.082;9.102;2022-10-22T08:07:12;13.50;99.90
27890;DHT22;15238;49.082;9.102;2022-10-22T08:09:13;13.60;99.90
27890;DHT22;15238;49.082;9.102;2022-10-22T08:11:13;13.60;99.90
27890;DHT22;15238;49.082;9.102;2022-10-22T08:13:14;13.60;99.90
27890;DHT22;15238;49.082;9.102;2022-10-22T08:15:15;13.60;99.90
27890;DHT22;15238;49.082;9.102;2022-10-22T08:17:15;13.70;99.90
27890;DHT22;15238;49.082;9.102;2022-10-22T08:19:16;13.70;99.90
27890;DHT22;15238;49.082;9.102;2022-10-22T08:21:18;13.70;99.90
27890;DHT22;15238;49.082;9.102;2022-10-22T08:23:18;13.90;99.90
27890;DHT22;15238;49.082;9.102;2022-10-22T08:25:19;14.00;99.90
27890;DHT22;15238;49.082;9.102;2022-10-22T08:27:19;14.20;99.90
27890;DHT22;15238;49.082;9.102;2022-10-22T08:29:24;14.30;99.90
27890;DHT22;15238;49.082;9.102;2022-10-22T08:31:26;14.50;99.90
27890;DHT22;15238;49.082;9.102;2022-10-22T08:33:26;14.70;99.90
27890;DHT22;15238;49.082;9.102;2022-10-22T08:35:27;14.90;99.90
27890;DHT22;15238;49.082;9.102;2022-10-22T08:37:27;15.20;99.90
27890;DHT22;15238;49.082;9.102;2022-10-22T08:39:28;15.40;99.90
27890;DHT22;15238;49.082;9.102;2022-10-22T08:41:28;15.50;99.90
27890;DHT22;15238;49.082;9.102;2022-10-22T08:46:11;15.90;99.90
27890;DHT22;15238;49.082;9.102;2022-10-22T08:50:46;16.20;99.90
27890;DHT22;15238;49.082;9.102;2022-10-22T08:52:50;16.30;99.90
27890;DHT22;15238;49.082;9.102;2022-10-22T08:54:57;16.50;99.90
27890;DHT22;15238;49.082;9.102;2022-10-22T08:57:12;16.60;99.90
27890;DHT22;15238;49.082;9.102;2022-10-22T08:59:50;16.70;99.90
27890;DHT22;15238;49.082;9.102;2022-10-22T09:01:53;16.80;99.90
27890;DHT22;15238;49.082;9.102;2022-10-22T09:04:08;17.00;99.90
27890;DHT22;15238;49.082;9.102;2022-10-22T09:06:20;17.10;99.90
27890;DHT22;15238;49.082;9.102;2022-10-22T09:08:22;17.10;99.90
27890;DHT22;15238;49.082;9.102;2022-10-22T09:10:33;17.10;99.90
27890;DHT22;15238;49.082;9.102;2022-10-22T09:12:34;17.10;99.90
27890;DHT22;15238;49.082;9.102;2022-10-22T09:14:35;17.20;99.90
27890;DHT22;15238;49.082;9.102;2022-10-22T09:16:41;17.20;99.90
27890;DHT22;15238;49.082;9.102;2022-10-22T09:23:38;17.20;99.90
27890;DHT22;15238;49.082;9.102;2022-10-22T09:25:50;17.10;99.90
27890;DHT22;15238;49.082;9.102;2022-10-22T09:27:51;17.10;99.90
27890;DHT22;15238;49.082;9.102;2022-10-22T09:29:53;17.10;99.90
27890;DHT22;15238;49.082;9.102;2022-10-22T09:31:54;17.10;99.90
27890;DHT22;15238;49.082;9.102;2022-10-22T09:33:54;17.10;99.90
27890;DHT22;15238;49.082;9.102;2022-10-22T09:35:59;17.10;99.90
27890;DHT22;15238;49.082;9.102;2022-10-22T09:38:07;17.10;99.90
27890;DHT22;15238;49.082;9.102;2022-10-22T09:40:13;17.10;99.90
27890;DHT22;15238;49.082;9.102;2022-10-22T09:42:16;17.10;99.90
27890;DHT22;15238;49.082;9.102;2022-10-22T09:44:18;17.20;99.90
27890;DHT22;15238;49.082;9.102;2022-10-22T09:46:23;17.20;99.90
27890;DHT22;15238;49.082;9.102;2022-10-22T09:48:35;17.30;99.90
27890;DHT22;15238;49.082;9.102;2022-10-22T09:50:49;17.40;99.90
27890;DHT22;15238;49.082;9.102;2022-10-22T09:55:31;17.50;99.90
27890;DHT22;15238;49.082;9.102;2022-10-22T09:57:32;17.60;99.90
27890;DHT22;15238;49.082;9.102;2022-10-22T09:59:40;17.60;99.90
27890;DHT22;15238;49.082;9.102;2022-10-22T10:01:42;17.60;99.90
27890;DHT22;15238;49.082;9.102;2022-10-22T10:03:43;17.70;99.90
27890;DHT22;15238;49.082;9.102;2022-10-22T10:05:48;17.80;99.90
27890;DHT22;15238;49.082;9.102;2022-10-22T10:07:49;17.80;99.90
27890;DHT22;15238;49.082;9.102;2022-10-22T10:09:50;17.80;99.90
27890;DHT22;15238;49.082;9.102;2022-10-22T10:14:37;17.70;99.90
27890;DHT22;15238;49.082;9.102;2022-10-22T10:16:48;17.70;99.90
27890;DHT22;15238;49.082;9.102;2022-10-22T10:21:38;17.80;99.90
27890;DHT22;15238;49.082;9.102;2022-10-22T10:23:54;17.90;99.90
27890;DHT22;15238;49.082;9.102;2022-10-22T10:26:04;18.00;99.90
27890;DHT22;15238;49.082;9.102;2022-10-22T10:28:36;18.00;99.90
27890;DHT22;15238;49.082;9.102;2022-10-22T10:30:53;18.10;99.90
27890;DHT22;15238;49.082;9.102;2022-10-22T10:35:18;18.30;99.90
27890;DHT22;15238;49.082;9.102;2022-10-22T10:37:24;18.30;99.90
27890;DHT22;15238;49.082;9.102;2022-10-22T10:39:44;18.30;99.90
27890;DHT22;15238;49.082;9.102;2022-10-22T10:41:58;18.20;99.90
27890;DHT22;15238;49.082;9.102;2022-10-22T10:46:46;18.20;99.90
27890;DHT22;15238;49.082;9.102;2022-10-22T10:49:02;18.00;99.90
27890;DHT22;15238;49.082;9.102;2022-10-22T10:51:20;18.20;99.90
27890;DHT22;15238;49.082;9.102;2022-10-22T10:56:30;18.40;99.90
27890;DHT22;15238;49.082;9.102;2022-10-22T11:00:56;18.50;99.90
27890;DHT22;15238;49.082;9.102;2022-10-22T11:05:13;18.50;99.90
27890;DHT22;15238;49.082;9.102;2022-10-22T11:07:25;18.60;99.90
27890;DHT22;15238;49.082;9.102;2022-10-22T11:09:43;18.70;99.90
27890;DHT22;15238;49.082;9.102;2022-10-22T11:11:49;18.80;99.90
27890;DHT22;15238;49.082;9.102;2022-10-22T11:16:20;18.70;99.90
27890;DHT22;15238;49.082;9.102;2022-10-22T11:18:31;18.70;99.90
27890;DHT22;15238;49.082;9.102;2022-10-22T11:20:56;18.70;99.90
27890;DHT22;15238;49.082;9.102;2022-10-22T11:23:08;18.60;99.90
27890;DHT22;15238;49.082;9.102;2022-10-22T11:25:20;18.70;99.90
27890;DHT22;15238;49.082;9.102;2022-10-22T11:27:38;18.70;99.90
27890;DHT22;15238;49.082;9.102;2022-10-22T11:29:48;18.80;99.90
27890;DHT22;15238;49.082;9.102;2022-10-22T11:31:52;18.80;99.90
27890;DHT22;15238;49.082;9.102;2022-10-22T11:34:14;18.80;99.90
27890;DHT22;15238;49.082;9.102;2022-10-22T11:36:18;18.80;99.90
27890;DHT22;15238;49.082;9.102;2022-10-22T11:38:24;18.90;99.90
27890;DHT22;15238;49.082;9.102;2022-10-22T11:42:40;18.90;99.90
27890;DHT22;15238;49.082;9.102;2022-10-22T11:45:06;19.00;99.90
27890;DHT22;15238;49.082;9.102;2022-10-22T11:47:25;19.00;99.90
27890;DHT22;15238;49.082;9.102;2022-10-22T11:49:40;19.00;99.90
27890;DHT22;15238;49.082;9.102;2022-10-22T11:51:42;19.00;99.90
27890;DHT22;15238;49.082;9.102;2022-10-22T11:53:44;19.10;99.90
27890;DHT22;15238;49.082;9.102;2022-10-22T11:55:45;19.20;99.90
27890;DHT22;15238;49.082;9.102;2022-10-22T11:57:49;19.20;99.90
27890;DHT22;15238;49.082;9.102;2022-10-22T12:00:00;19.30;99.90
27890;DHT22;15238;49.082;9.102;2022-10-22T12:04:40;19.30;99.90
27890;DHT22;15238;49.082;9.102;2022-10-22T12:07:00;19.30;99.90
27890;DHT22;15238;49.082;9.102;2022-10-22T12:09:02;19.40;99.90
27890;DHT22;15238;49.082;9.102;2022-10-22T12:13:21;19.40;99.90
27890;DHT22;15238;49.082;9.102;2022-10-22T12:15:25;19.40;99.90
27890;DHT22;15238;49.082;9.102;2022-10-22T12:17:27;19.40;99.90
27890;DHT22;15238;49.082;9.102;2022-10-22T12:19:36;19.40;99.90
27890;DHT22;15238;49.082;9.102;2022-10-22T12:21:37;19.40;99.90
27890;DHT22;15238;49.082;9.102;2022-10-22T12:23:39;19.40;99.90
27890;DHT22;15238;49.082;9.102;2022-10-22T12:25:39;19.30;99.90
27890;DHT22;15238;49.082;9.102;2022-10-22T12:27:40;19.10;99.90
27890;DHT22;15238;49.082;9.102;2022-10-22T12:29:41;19.20;99.90
27890;DHT22;15238;49.082;9.102;2022-10-22T12:31:43;19.30;99.90
27890;DHT22;15238;49.082;9.102;2022-10-22T12:33:44;19.30;99.90
27890;DHT22;15238;49.082;9.102;2022-10-22T12:35:46;19.50;99.90
27890;DHT22;15238;49.082;9.102;2022-10-22T12:37:52;19.50;99.90
27890;DHT22;15238;49.082;9.102;2022-10-22T12:39:53;19.60;99.90
27890;DHT22;15238;49.082;9.102;2022-10-22T12:41:54;19.60;99.90
27890;DHT22;15238;49.082;9.102;2022-10-22T12:43:58;19.80;99.90
27890;DHT22;15238;49.082;9.102;2022-10-22T12:45:59;19.70;99.90
27890;DHT22;15238;49.082;9.102;2022-10-22T12:48:13;19.70;99.90
27890;DHT22;15238;49.082;9.102;2022-10-22T12:50:19;19.70;99.90
27890;DHT22;15238;49.082;9.102;2022-10-22T12:52:22;19.80;99.90
27890;DHT22;15238;49.082;9.102;2022-10-22T12:54:30;19.90;99.90
27890;DHT22;15238;49.082;9.102;2022-10-22T12:56:32;20.00;99.90
27890;DHT22;15238;49.082;9.102;2022-10-22T12:58:42;20.00;99.90
27890;DHT22;15238;49.082;9.102;2022-10-22T13:00:44;20.00;99.90
27890;DHT22;15238;49.082;9.102;2022-10-22T13:02:45;19.90;99.90
27890;DHT22;15238;49.082;9.102;2022-10-22T13:05:11;19.90;99.90
27890;DHT22;15238;49.082;9.102;2022-10-22T13:11:19;19.90;99.90
27890;DHT22;15238;49.082;9.102;2022-10-22T13:13:39;19.90;99.90
27890;DHT22;15238;49.082;9.102;2022-10-22T13:15:44;19.90;99.90
27890;DHT22;15238;49.082;9.102;2022-10-22T13:17:46;20.00;99.90
27890;DHT22;15238;49.082;9.102;2022-10-22T13:21:52;20.00;99.90
27890;DHT22;15238;49.082;9.102;2022-10-22T13:24:01;20.10;99.90
27890;DHT22;15238;49.082;9.102;2022-10-22T13:26:14;20.20;99.90
27890;DHT22;15238;49.082;9.102;2022-10-22T13:28:18;20.20;99.90
27890;DHT22;15238;49.082;9.102;2022-10-22T13:32:32;20.20;99.90
27890;DHT22;15238;49.082;9.102;2022-10-22T13:34:33;20.20;99.90
27890;DHT22;15238;49.082;9.102;2022-10-22T13:36:35;20.20;99.90
27890;DHT22;15238;49.082;9.102;2022-10-22T13:38:36;20.20;99.90
27890;DHT22;15238;49.082;9.102;2022-10-22T13:40:37;20.20;99.90
27890;DHT22;15238;49.082;9.102;2022-10-22T13:42:38;20.30;99.90
27890;DHT22;15238;49.082;9.102;2022-10-22T13:44:39;20.40;99.90
27890;DHT22;15238;49.082;9.102;2022-10-22T13:46:39;20.40;99.90
27890;DHT22;15238;49.082;9.102;2022-10-22T13:48:43;20.30;99.90
27890;DHT22;15238;49.082;9.102;2022-10-22T13:50:44;20.30;99.90
27890;DHT22;15238;49.082;9.102;2022-10-22T13:52:50;20.30;99.90
27890;DHT22;15238;49.082;9.102;2022-10-22T13:54:51;20.20;99.90
27890;DHT22;15238;49.082;9.102;2022-10-22T13:56:52;20.20;99.90
27890;DHT22;15238;49.082;9.102;2022-10-22T13:58:52;20.30;99.90
27890;DHT22;15238;49.082;9.102;2022-10-22T14:00:55;20.30;99.90
27890;DHT22;15238;49.082;9.102;2022-10-22T14:02:57;20.30;99.90
27890;DHT22;15238;49.082;9.102;2022-10-22T14:04:58;20.30;99.90
27890;DHT22;15238;49.082;9.102;2022-10-22T14:07:02;20.30;99.90
27890;DHT22;15238;49.082;9.102;2022-10-22T14:09:09;20.30;99.90
27890;DHT22;15238;49.082;9.102;2022-10-22T14:11:11;20.30;99.90
27890;DHT22;15238;49.082;9.102;2022-10-22T14:13:15;20.30;99.90
27890;DHT22;15238;49.082;9.102;2022-10-22T14:15:18;20.30;99.90
27890;DHT22;15238;49.082;9.102;2022-10-22T14:17:19;20.30;99.90
27890;DHT22;15238;49.082;9.102;2022-10-22T14:19:19;20.20;99.90